createdAt,value
2019-05-06T00:01:09.986Z,100624.95
2019-05-06T00:03:36.719Z,100624.95
2019-05-06T00:06:04.003Z,100619.83
2019-05-06T00:08:30.229Z,100620.38
2019-05-06T00:10:56.973Z,100627.25
2019-05-06T00:13:24.206Z,100617.95
2019-05-06T00:15:50.467Z,100617.41
2019-05-06T00:18:17.198Z,100622.95
2019-05-06T00:20:44.082Z,100622.20
2019-05-06T00:23:14.738Z,100619.02
2019-05-06T00:26:04.013Z,100620.72
2019-05-06T00:28:36.026Z,100623.83
2019-05-06T00:31:12.175Z,100626.64
2019-05-06T00:33:29.514Z,100625.83
2019-05-06T00:35:56.258Z,100629.84
2019-05-06T00:38:24.622Z,100629.00
2019-05-06T00:40:50.635Z,100630.88
2019-05-06T00:43:17.382Z,100631.30
2019-05-06T00:45:44.349Z,100625.98
2019-05-06T00:48:10.894Z,100631.77
2019-05-06T00:50:37.650Z,100638.00
2019-05-06T00:53:04.675Z,100634.48
2019-05-06T00:55:31.238Z,100631.48
2019-05-06T00:57:57.991Z,100636.53
2019-05-06T01:00:27.945Z,100637.77
2019-05-06T01:02:54.701Z,100634.88
2019-05-06T01:05:21.449Z,100635.06
2019-05-06T01:07:48.199Z,100633.73
2019-05-06T01:10:14.931Z,100642.09
2019-05-06T01:12:43.530Z,100640.28
2019-05-06T01:15:14.259Z,100645.12
2019-05-06T01:17:39.110Z,100641.10
2019-05-06T01:20:05.835Z,100644.92
2019-05-06T01:22:34.204Z,100642.28
2019-05-06T01:24:59.388Z,100648.28
2019-05-06T01:27:26.122Z,100651.33
2019-05-06T01:29:54.809Z,100645.70
2019-05-06T01:32:19.601Z,100646.58
2019-05-06T01:34:46.337Z,100651.86
2019-05-06T01:37:14.250Z,100655.27
2019-05-06T01:39:47.070Z,100648.80
2019-05-06T01:42:19.725Z,100653.86
2019-05-06T01:44:46.446Z,100648.70
2019-05-06T01:47:14.522Z,100652.70
2019-05-06T01:49:40.158Z,100652.58
2019-05-06T01:52:06.937Z,100655.47
2019-05-06T01:54:34.406Z,100657.34
2019-05-06T01:57:00.390Z,100653.63
2019-05-06T01:59:27.154Z,100657.37
2019-05-06T02:02:00.490Z,100660.61
2019-05-06T02:04:20.681Z,100656.88
2019-05-06T02:06:47.421Z,100660.51
2019-05-06T02:09:14.322Z,100661.96
2019-05-06T02:11:41.053Z,100659.66
2019-05-06T02:14:07.800Z,100663.09
2019-05-06T02:16:34.585Z,100664.05
2019-05-06T02:19:01.357Z,100666.27
2019-05-06T02:21:33.882Z,100658.95
2019-05-06T02:24:00.733Z,100659.27
2019-05-06T02:26:27.998Z,100659.45
2019-05-06T02:28:54.822Z,100666.31
2019-05-06T02:31:27.503Z,100665.61
2019-05-06T02:34:01.047Z,100666.39
2019-05-06T02:36:35.486Z,100664.36
2019-05-06T02:39:03.600Z,100666.39
2019-05-06T02:41:28.999Z,100664.81
2019-05-06T02:43:55.732Z,100669.80
2019-05-06T02:46:23.817Z,100663.56
2019-05-06T02:49:03.999Z,100660.97
2019-05-06T02:51:33.295Z,100663.44
2019-05-06T02:53:57.881Z,100667.56
2019-05-06T02:56:24.623Z,100663.09
2019-05-06T02:58:53.472Z,100663.56
2019-05-06T03:01:18.156Z,100668.86
2019-05-06T03:03:44.875Z,100675.60
2019-05-06T03:06:13.167Z,100675.48
2019-05-06T03:08:38.375Z,100676.08
2019-05-06T03:11:05.134Z,100682.66
2019-05-06T03:13:33.946Z,100676.74
2019-05-06T03:15:58.600Z,100679.67
2019-05-06T03:18:25.359Z,100684.53
2019-05-06T03:20:57.860Z,100685.89
2019-05-06T03:23:24.610Z,100686.77
2019-05-06T03:25:53.211Z,100690.55
2019-05-06T03:28:18.082Z,100687.48
2019-05-06T03:30:46.043Z,100685.61
2019-05-06T03:33:37.340Z,100685.94
2019-05-06T03:35:52.200Z,100683.22
2019-05-06T03:38:05.112Z,100679.91
2019-05-06T03:40:36.114Z,100681.06
2019-05-06T03:42:58.591Z,100682.67
2019-05-06T03:45:33.450Z,100675.02
2019-05-06T03:48:05.754Z,100675.14
2019-05-06T03:50:29.592Z,100677.48
2019-05-06T03:52:56.663Z,100682.20
2019-05-06T03:55:23.635Z,100689.98
2019-05-06T03:57:53.662Z,100688.23
2019-05-06T04:00:17.216Z,100695.34
2019-05-06T04:02:43.978Z,100693.12
2019-05-06T04:05:13.240Z,100701.22
2019-05-06T04:07:37.539Z,100692.55
2019-05-06T04:10:16.850Z,100697.93
2019-05-06T04:12:43.649Z,100703.00
2019-05-06T04:15:10.368Z,100711.48
2019-05-06T04:17:43.812Z,100710.55
2019-05-06T04:20:16.910Z,100706.09
2019-05-06T04:22:54.850Z,100713.52
2019-05-06T04:25:28.512Z,100716.46
2019-05-06T04:27:57.333Z,100721.56
2019-05-06T04:30:24.524Z,100722.15
2019-05-06T04:32:53.135Z,100721.16
2019-05-06T04:35:17.552Z,100725.34
2019-05-06T04:37:44.279Z,100727.44
2019-05-06T04:40:13.043Z,100729.91
2019-05-06T04:42:37.777Z,100731.91
2019-05-06T04:45:04.969Z,100735.02
2019-05-06T04:47:32.745Z,100733.64
2019-05-06T04:49:58.322Z,100735.20
2019-05-06T04:52:26.092Z,100740.03
2019-05-06T04:54:53.435Z,100734.32
2019-05-06T04:57:18.544Z,100737.02
2019-05-06T04:59:45.307Z,100736.53
2019-05-06T05:02:13.322Z,100740.30
2019-05-06T05:04:38.865Z,100739.13
2019-05-06T05:07:05.586Z,100749.56
2019-05-06T05:09:32.629Z,100754.44
2019-05-06T05:12:03.283Z,100755.94
2019-05-06T05:14:37.546Z,100755.14
2019-05-06T05:17:19.162Z,100753.80
2019-05-06T05:19:45.934Z,100757.48
2019-05-06T05:22:12.735Z,100756.69
2019-05-06T05:24:39.481Z,100766.58
2019-05-06T05:27:06.249Z,100766.94
2019-05-06T05:29:33.002Z,100764.59
2019-05-06T05:31:59.738Z,100769.62
2019-05-06T05:34:37.212Z,100767.80
2019-05-06T05:36:53.199Z,100774.81
2019-05-06T05:39:21.810Z,100783.73
2019-05-06T05:41:46.674Z,100781.44
2019-05-06T05:44:34.104Z,100789.14
2019-05-06T05:47:03.261Z,100787.44
2019-05-06T05:49:32.483Z,100794.79
2019-05-06T05:51:58.882Z,100796.39
2019-05-06T05:54:25.627Z,100799.61
2019-05-06T05:56:53.026Z,100798.28
2019-05-06T05:59:19.439Z,100795.69
2019-05-06T06:01:46.181Z,100802.52
2019-05-06T06:04:13.116Z,100799.91
2019-05-06T06:06:39.771Z,100796.42
2019-05-06T06:09:06.717Z,100797.87
2019-05-06T06:11:39.382Z,100793.65
2019-05-06T06:14:25.750Z,100791.55
2019-05-06T06:17:15.110Z,100777.23
2019-05-06T06:19:47.037Z,100782.34
2019-05-06T06:22:16.202Z,100787.48
2019-05-06T06:24:43.144Z,100785.11
2019-05-06T06:27:09.898Z,100789.92
2019-05-06T06:29:36.646Z,100788.63
2019-05-06T06:32:25.858Z,100781.95
2019-05-06T06:35:08.352Z,100787.74
2019-05-06T06:37:33.056Z,100791.16
2019-05-06T06:39:58.493Z,100770.78
2019-05-06T06:42:25.238Z,100780.72
2019-05-06T06:44:52.209Z,100777.74
2019-05-06T06:47:18.723Z,100777.33
2019-05-06T06:49:45.470Z,100778.30
2019-05-06T06:52:14.727Z,100782.39
2019-05-06T06:54:38.918Z,100777.54
2019-05-06T06:57:13.559Z,100780.91
2019-05-06T06:59:46.858Z,100776.27
2019-05-06T07:02:35.056Z,100777.31
2019-05-06T07:05:07.066Z,100775.63
2019-05-06T07:07:43.716Z,100776.36
2019-05-06T07:10:02.704Z,100780.08
2019-05-06T07:12:27.352Z,100788.28
2019-05-06T07:14:59.433Z,100769.66
2019-05-06T07:17:26.182Z,100778.91
2019-05-06T07:19:53.785Z,100776.30
2019-05-06T07:22:20.540Z,100767.65
2019-05-06T07:24:47.262Z,100776.64
2019-05-06T07:27:17.662Z,100783.05
2019-05-06T07:29:48.348Z,100785.13
2019-05-06T07:32:12.299Z,100783.35
2019-05-06T07:34:37.887Z,100772.45
2019-05-06T07:37:04.620Z,100778.65
2019-05-06T07:39:33.376Z,100787.43
2019-05-06T07:41:59.323Z,100795.28
2019-05-06T07:44:33.445Z,100776.25
2019-05-06T07:47:06.622Z,100774.23
2019-05-06T07:49:33.351Z,100783.09
2019-05-06T07:52:02.723Z,100780.77
2019-05-06T07:54:26.826Z,100777.28
2019-05-06T07:56:53.574Z,100774.09
2019-05-06T07:59:22.549Z,100774.03
2019-05-06T08:01:47.035Z,100769.72
2019-05-06T08:04:13.758Z,100754.69
2019-05-06T08:06:42.481Z,100753.68
2019-05-06T08:09:07.803Z,100758.45
2019-05-06T08:11:34.536Z,100758.13
2019-05-06T08:14:02.181Z,100748.75
2019-05-06T08:16:28.199Z,100744.69
2019-05-06T08:18:54.950Z,100747.13
2019-05-06T08:21:22.388Z,100751.80
2019-05-06T08:23:49.633Z,100743.69
2019-05-06T08:26:17.865Z,100740.34
2019-05-06T08:28:44.536Z,100739.00
2019-05-06T08:31:10.047Z,100721.91
2019-05-06T08:33:36.826Z,100724.59
2019-05-06T08:36:11.500Z,100742.03
2019-05-06T08:38:53.082Z,100734.11
2019-05-06T08:41:17.578Z,100739.42
2019-05-06T08:43:44.325Z,100735.61
2019-05-06T08:46:12.557Z,100720.78
2019-05-06T08:48:37.802Z,100714.16
2019-05-06T08:51:12.703Z,100704.93
2019-05-06T08:53:44.547Z,100710.38
2019-05-06T08:56:16.429Z,100710.41
2019-05-06T08:58:45.503Z,100711.73
2019-05-06T09:01:14.380Z,100690.78
2019-05-06T09:03:42.243Z,100693.63
2019-05-06T09:06:07.978Z,100686.33
2019-05-06T09:08:34.724Z,100716.06
2019-05-06T09:11:03.106Z,100719.72
2019-05-06T09:13:28.339Z,100718.53
2019-05-06T09:15:55.062Z,100728.49
2019-05-06T09:18:23.881Z,100728.36
2019-05-06T09:20:48.510Z,100723.05
2019-05-06T09:23:15.242Z,100724.45
2019-05-06T09:25:42.452Z,100713.96
2019-05-06T09:28:13.938Z,100711.73
2019-05-06T09:30:52.548Z,100710.25
2019-05-06T09:33:22.536Z,100703.27
2019-05-06T09:35:47.938Z,100710.41
2019-05-06T09:38:14.662Z,100706.40
2019-05-06T09:40:43.301Z,100731.41
2019-05-06T09:43:08.134Z,100753.50
2019-05-06T09:45:34.906Z,100774.84
2019-05-06T09:48:12.891Z,100789.91
2019-05-06T09:50:45.476Z,100792.77
2019-05-06T09:53:12.967Z,100793.32
2019-05-06T09:55:43.144Z,100788.14
2019-05-06T09:58:12.186Z,100780.61
2019-05-06T10:00:39.281Z,100763.78
2019-05-06T10:03:06.009Z,100745.75
2019-05-06T10:05:32.740Z,100758.93
2019-05-06T10:07:59.463Z,100744.67
2019-05-06T10:10:26.205Z,100735.33
2019-05-06T10:12:53.116Z,100729.97
2019-05-06T10:15:19.679Z,100735.57
2019-05-06T10:17:47.067Z,100733.10
2019-05-06T10:20:13.847Z,100736.36
2019-05-06T10:22:42.919Z,100729.81
2019-05-06T10:25:07.364Z,100717.38
2019-05-06T10:27:34.094Z,100714.80
2019-05-06T10:30:04.079Z,100689.46
2019-05-06T10:32:43.702Z,100702.68
2019-05-06T10:35:10.470Z,100708.92
2019-05-06T10:37:43.498Z,100692.88
2019-05-06T10:40:13.520Z,100701.50
2019-05-06T10:42:44.455Z,100702.70
2019-05-06T10:45:18.229Z,100696.55
2019-05-06T10:47:44.954Z,100696.10
2019-05-06T10:50:12.573Z,100693.28
2019-05-06T10:52:44.146Z,100690.17
2019-05-06T10:55:12.313Z,100685.70
2019-05-06T10:57:43.100Z,100688.95
2019-05-06T11:00:08.322Z,100692.73
2019-05-06T11:02:57.679Z,100699.58
2019-05-06T11:05:24.420Z,100702.30
2019-05-06T11:07:52.167Z,100723.14
2019-05-06T11:10:26.907Z,100716.17
2019-05-06T11:12:44.607Z,100714.30
2019-05-06T11:15:12.419Z,100722.15
2019-05-06T11:17:38.075Z,100718.90
2019-05-06T11:20:06.883Z,100732.03
2019-05-06T11:22:32.743Z,100726.78
2019-05-06T11:24:58.387Z,100747.53
2019-05-06T11:27:31.858Z,100733.89
2019-05-06T11:29:53.053Z,100750.56
2019-05-06T11:32:28.734Z,100743.05
2019-05-06T11:35:00.055Z,100727.84
2019-05-06T11:37:50.534Z,100709.30
2019-05-06T11:40:16.631Z,100701.14
2019-05-06T11:42:39.910Z,100712.36
2019-05-06T11:45:06.694Z,100722.83
2019-05-06T11:47:33.441Z,100711.16
2019-05-06T11:50:02.489Z,100694.51
2019-05-06T11:52:26.982Z,100682.66
2019-05-06T11:54:53.678Z,100670.34
2019-05-06T11:57:20.442Z,100670.52
2019-05-06T11:59:48.010Z,100644.83
2019-05-06T12:02:16.543Z,100648.56
2019-05-06T12:04:43.272Z,100656.84
2019-05-06T12:07:11.637Z,100650.66
2019-05-06T12:09:36.739Z,100637.82
2019-05-06T12:12:03.559Z,100638.16
2019-05-06T12:14:30.270Z,100634.79
2019-05-06T12:16:57.022Z,100640.20
2019-05-06T12:19:23.751Z,100653.78
2019-05-06T12:21:50.826Z,100655.89
2019-05-06T12:24:17.564Z,100657.70
2019-05-06T12:26:44.306Z,100671.98
2019-05-06T12:29:12.689Z,100680.94
2019-05-06T12:31:37.786Z,100664.06
2019-05-06T12:34:04.517Z,100655.41
2019-05-06T12:36:32.549Z,100661.55
2019-05-06T12:39:06.485Z,100671.11
2019-05-06T12:41:33.330Z,100669.31
2019-05-06T12:43:57.701Z,100668.59
2019-05-06T12:46:28.922Z,100672.14
2019-05-06T12:48:55.646Z,100662.90
2019-05-06T12:51:22.823Z,100667.13
2019-05-06T12:53:49.174Z,100669.04
2019-05-06T12:56:15.908Z,100663.96
2019-05-06T12:58:44.258Z,100661.92
2019-05-06T13:01:09.415Z,100667.63
2019-05-06T13:03:36.162Z,100671.20
2019-05-06T13:06:07.307Z,100656.52
2019-05-06T13:08:49.874Z,100654.95
2019-05-06T13:10:56.458Z,100644.47
2019-05-06T13:13:23.214Z,100650.87
2019-05-06T13:15:52.599Z,100647.67
2019-05-06T13:18:16.703Z,100651.63
2019-05-06T13:20:49.907Z,100641.16
2019-05-06T13:23:20.775Z,100629.11
2019-05-06T13:25:43.039Z,100628.09
2019-05-06T13:28:07.690Z,100617.95
2019-05-06T13:30:34.479Z,100631.25
2019-05-06T13:33:06.353Z,100610.71
2019-05-06T13:35:33.124Z,100607.27
2019-05-06T13:37:59.866Z,100610.36
2019-05-06T13:40:27.217Z,100622.84
2019-05-06T13:43:13.514Z,100635.95
2019-05-06T13:45:41.962Z,100633.52
2019-05-06T13:48:13.279Z,100622.52
2019-05-06T13:50:39.325Z,100615.94
2019-05-06T13:53:11.439Z,100603.88
2019-05-06T13:55:32.898Z,100605.77
2019-05-06T13:57:59.654Z,100601.89
2019-05-06T14:00:26.390Z,100598.61
2019-05-06T14:02:54.934Z,100596.17
2019-05-06T14:05:21.727Z,100594.42
2019-05-06T14:07:48.494Z,100599.92
2019-05-06T14:10:15.226Z,100598.08
2019-05-06T14:12:42.606Z,100594.87
2019-05-06T14:15:08.696Z,100589.11
2019-05-06T14:17:35.473Z,100582.64
2019-05-06T14:20:02.774Z,100581.04
2019-05-06T14:22:29.003Z,100577.51
2019-05-06T14:25:07.358Z,100582.09
2019-05-06T14:27:34.074Z,100571.33
2019-05-06T14:30:05.328Z,100554.68
2019-05-06T14:32:32.823Z,100565.22
2019-05-06T14:34:58.819Z,100581.75
2019-05-06T14:37:25.653Z,100578.73
2019-05-06T14:39:58.102Z,100601.16
2019-05-06T14:42:19.070Z,100584.95
2019-05-06T14:44:45.818Z,100588.37
2019-05-06T14:47:18.322Z,100579.54
2019-05-06T14:49:45.173Z,100587.14
2019-05-06T14:52:13.134Z,100579.92
2019-05-06T14:54:55.662Z,100591.44
2019-05-06T14:57:23.348Z,100601.78
2019-05-06T14:59:51.948Z,100587.17
2019-05-06T15:02:16.895Z,100574.67
2019-05-06T15:04:43.764Z,100571.30
2019-05-06T15:07:12.536Z,100568.44
2019-05-06T15:09:52.192Z,100570.90
2019-05-06T15:12:03.939Z,100580.62
2019-05-06T15:14:32.887Z,100564.59
2019-05-06T15:16:58.161Z,100565.22
2019-05-06T15:19:24.883Z,100559.26
2019-05-06T15:21:53.146Z,100554.68
2019-05-06T15:24:21.271Z,100555.55
2019-05-06T15:26:45.305Z,100565.22
2019-05-06T15:29:12.665Z,100557.37
2019-05-06T15:31:45.699Z,100564.41
2019-05-06T15:34:13.106Z,100563.53
2019-05-06T15:36:44.730Z,100561.22
2019-05-06T15:39:13.201Z,100554.03
2019-05-06T15:41:38.210Z,100549.94
2019-05-06T15:44:04.940Z,100565.87
2019-05-06T15:46:32.290Z,100587.48
2019-05-06T15:48:58.401Z,100588.82
2019-05-06T15:51:30.854Z,100588.38
2019-05-06T15:53:57.641Z,100593.88
2019-05-06T15:56:24.399Z,100603.53
2019-05-06T15:58:51.158Z,100593.37
2019-05-06T16:01:17.914Z,100583.41
2019-05-06T16:03:44.728Z,100587.24
2019-05-06T16:06:12.412Z,100591.34
2019-05-06T16:08:38.224Z,100601.16
2019-05-06T16:11:04.965Z,100597.58
2019-05-06T16:13:32.047Z,100608.91
2019-05-06T16:15:58.426Z,100609.16
2019-05-06T16:18:25.271Z,100605.55
2019-05-06T16:20:52.142Z,100613.86
2019-05-06T16:23:24.011Z,100618.28
2019-05-06T16:25:52.412Z,100618.46
2019-05-06T16:28:17.537Z,100622.97
2019-05-06T16:30:44.282Z,100625.25
2019-05-06T16:33:12.167Z,100623.77
2019-05-06T16:35:37.757Z,100621.67
2019-05-06T16:38:04.505Z,100610.43
2019-05-06T16:40:33.503Z,100620.70
2019-05-06T16:42:57.976Z,100623.22
2019-05-06T16:45:24.722Z,100613.89
2019-05-06T16:47:52.426Z,100647.66
2019-05-06T16:50:18.226Z,100650.00
2019-05-06T16:52:45.582Z,100631.38
2019-05-06T16:55:14.182Z,100623.97
2019-05-06T16:57:42.843Z,100623.42
2019-05-06T17:00:08.802Z,100624.34
2019-05-06T17:02:41.991Z,100630.45
2019-05-06T17:05:15.094Z,100614.77
2019-05-06T17:07:42.258Z,100624.11
2019-05-06T17:10:07.894Z,100627.84
2019-05-06T17:12:34.631Z,100627.84
2019-05-06T17:15:03.240Z,100616.45
2019-05-06T17:17:39.690Z,100610.07
2019-05-06T17:19:54.959Z,100619.75
2019-05-06T17:22:22.955Z,100620.45
2019-05-06T17:24:48.832Z,100613.59
2019-05-06T17:27:15.277Z,100620.41
2019-05-06T17:29:48.035Z,100621.11
2019-05-06T17:32:24.712Z,100615.23
2019-05-06T17:34:52.883Z,100616.91
2019-05-06T17:37:25.218Z,100630.37
2019-05-06T17:40:06.328Z,100630.47
2019-05-06T17:42:18.767Z,100627.80
2019-05-06T17:44:46.559Z,100630.61
2019-05-06T17:47:22.817Z,100627.60
2019-05-06T17:49:47.710Z,100630.58
2019-05-06T17:52:17.706Z,100638.70
2019-05-06T17:54:44.567Z,100642.69
2019-05-06T17:57:12.298Z,100638.51
2019-05-06T17:59:38.153Z,100641.44
2019-05-06T18:02:07.383Z,100644.53
2019-05-06T18:04:34.499Z,100646.58
2019-05-06T18:07:00.835Z,100646.24
2019-05-06T18:09:27.598Z,100643.82
2019-05-06T18:11:59.047Z,100645.61
2019-05-06T18:14:23.046Z,100653.49
2019-05-06T18:16:47.853Z,100647.16
2019-05-06T18:19:14.615Z,100651.02
2019-05-06T18:21:41.354Z,100646.42
2019-05-06T18:24:09.897Z,100652.45
2019-05-06T18:26:35.090Z,100657.48
2019-05-06T18:29:01.841Z,100656.00
2019-05-06T18:31:28.574Z,100659.14
2019-05-06T18:33:55.306Z,100661.52
2019-05-06T18:36:22.675Z,100667.93
2019-05-06T18:38:48.771Z,100685.22
2019-05-06T18:41:15.558Z,100696.80
2019-05-06T18:43:42.409Z,100706.32
2019-05-06T18:46:09.018Z,100709.63
2019-05-06T18:48:35.747Z,100710.43
2019-05-06T18:51:03.159Z,100712.19
2019-05-06T18:53:29.437Z,100710.79
2019-05-06T18:55:56.168Z,100718.84
2019-05-06T18:58:22.899Z,100708.47
2019-05-06T19:00:49.650Z,100716.23
2019-05-06T19:03:16.365Z,100712.28
2019-05-06T19:05:43.122Z,100727.32
2019-05-06T19:08:17.721Z,100721.80
2019-05-06T19:10:44.554Z,100724.78
2019-05-06T19:13:12.652Z,100727.48
2019-05-06T19:15:38.225Z,100736.06
2019-05-06T19:18:04.963Z,100739.55
2019-05-06T19:20:33.831Z,100743.59
2019-05-06T19:22:58.514Z,100741.56
2019-05-06T19:25:26.575Z,100748.78
2019-05-06T19:27:53.115Z,100744.13
2019-05-06T19:30:18.986Z,100738.58
2019-05-06T19:32:45.743Z,100734.48
2019-05-06T19:35:13.226Z,100732.08
2019-05-06T19:37:39.346Z,100731.09
2019-05-06T19:40:06.098Z,100728.56
2019-05-06T19:42:46.246Z,100721.09
2019-05-06T19:44:59.563Z,100733.39
2019-05-06T19:47:26.374Z,100732.02
2019-05-06T19:49:53.371Z,100736.38
2019-05-06T19:52:19.867Z,100740.78
2019-05-06T19:54:46.587Z,100732.97
2019-05-06T19:57:15.835Z,100726.91
2019-05-06T19:59:42.282Z,100726.74
2019-05-06T20:02:06.926Z,100725.41
2019-05-06T20:04:33.677Z,100726.19
2019-05-06T20:07:05.370Z,100722.73
2019-05-06T20:09:42.526Z,100727.51
2019-05-06T20:12:12.274Z,100727.70
2019-05-06T20:14:37.348Z,100724.78
2019-05-06T20:17:04.219Z,100723.39
2019-05-06T20:19:33.691Z,100722.98
2019-05-06T20:21:57.666Z,100733.20
2019-05-06T20:24:24.382Z,100727.59
2019-05-06T20:26:52.714Z,100735.06
2019-05-06T20:29:17.866Z,100728.30
2019-05-06T20:31:44.613Z,100729.87
2019-05-06T20:34:12.870Z,100726.28
2019-05-06T20:36:38.101Z,100745.58
2019-05-06T20:39:05.778Z,100737.22
2019-05-06T20:41:32.947Z,100732.72
2019-05-06T20:43:59.300Z,100734.22
2019-05-06T20:46:26.043Z,100739.27
2019-05-06T20:48:53.024Z,100742.59
2019-05-06T20:51:21.805Z,100745.45
2019-05-06T20:53:46.217Z,100744.38
2019-05-06T20:56:12.953Z,100729.65
2019-05-06T20:58:41.851Z,100736.46
2019-05-06T21:01:06.460Z,100729.22
2019-05-06T21:03:33.202Z,100736.55
2019-05-06T21:06:01.964Z,100735.12
2019-05-06T21:08:26.666Z,100738.84
2019-05-06T21:10:53.442Z,100745.75
2019-05-06T21:13:29.685Z,100747.02
2019-05-06T21:15:46.947Z,100747.19
2019-05-06T21:18:13.745Z,100748.48
2019-05-06T21:20:40.498Z,100751.88
2019-05-06T21:23:07.255Z,100757.34
2019-05-06T21:25:34.026Z,100752.75
2019-05-06T21:28:02.937Z,100746.02
2019-05-06T21:30:27.471Z,100741.34
2019-05-06T21:32:54.187Z,100746.40
2019-05-06T21:35:22.200Z,100741.58
2019-05-06T21:37:47.671Z,100741.56
2019-05-06T21:40:14.393Z,100733.52
2019-05-06T21:42:43.170Z,100734.45
2019-05-06T21:45:07.846Z,100737.42
2019-05-06T21:47:34.562Z,100731.72
2019-05-06T21:50:01.300Z,100732.66
2019-05-06T21:52:39.256Z,100731.01
2019-05-06T21:54:54.854Z,100729.73
2019-05-06T21:57:21.860Z,100732.19
2019-05-06T21:59:48.470Z,100730.43
2019-05-06T22:02:15.554Z,100729.38
2019-05-06T22:04:43.329Z,100722.30
2019-05-06T22:07:09.089Z,100724.55
2019-05-06T22:09:35.814Z,100728.98
2019-05-06T22:12:02.583Z,100730.61
2019-05-06T22:14:29.322Z,100725.88
2019-05-06T22:16:56.062Z,100722.19
2019-05-06T22:19:22.778Z,100725.69
2019-05-06T22:21:55.270Z,100730.14
2019-05-06T22:24:25.086Z,100732.50
2019-05-06T22:26:52.127Z,100731.33
2019-05-06T22:29:18.814Z,100727.32
2019-05-06T22:31:45.555Z,100727.45
2019-05-06T22:34:13.383Z,100731.53
2019-05-06T22:36:39.063Z,100723.53
2019-05-06T22:39:05.839Z,100721.45
2019-05-06T22:41:32.781Z,100723.26
2019-05-06T22:44:12.433Z,100733.88
2019-05-06T22:46:26.094Z,100731.63
2019-05-06T22:48:54.505Z,100735.04
2019-05-06T22:51:19.582Z,100729.75
2019-05-06T22:53:46.323Z,100731.22
2019-05-06T22:56:14.044Z,100723.80
2019-05-06T22:58:42.797Z,100727.35
2019-05-06T23:01:27.138Z,100724.52
2019-05-06T23:03:53.887Z,100726.41
2019-05-06T23:06:21.965Z,100724.41
2019-05-06T23:08:47.382Z,100723.38
2019-05-06T23:11:15.437Z,100724.50
2019-05-06T23:13:41.887Z,100729.24
2019-05-06T23:16:07.577Z,100723.94
2019-05-06T23:18:34.314Z,100723.77
2019-05-06T23:21:02.471Z,100720.59
2019-05-06T23:23:27.782Z,100717.73
2019-05-06T23:26:02.239Z,100719.84
2019-05-06T23:28:27.054Z,100714.17
2019-05-06T23:30:53.778Z,100709.36
2019-05-06T23:33:22.830Z,100721.52
2019-05-06T23:35:47.275Z,100729.77
2019-05-06T23:38:25.698Z,100719.28
2019-05-06T23:41:04.055Z,100725.31
2019-05-06T23:43:42.900Z,100726.51
2019-05-06T23:46:22.710Z,100726.79
2019-05-06T23:48:59.228Z,100720.51
2019-05-06T23:51:37.523Z,100719.19
2019-05-06T23:54:15.894Z,100713.23
2019-05-06T23:56:43.716Z,100714.59
2019-05-06T23:59:09.502Z,100714.23
